createdAt,value
2022-12-26T00:00:03.375Z,0.00
2022-12-26T00:01:03.763Z,0.00
2022-12-26T00:02:03.077Z,0.00
2022-12-26T00:03:02.802Z,0.00
2022-12-26T00:04:02.527Z,0.00
2022-12-26T00:05:02.681Z,0.00
2022-12-26T00:06:02.538Z,0.00
2022-12-26T00:07:02.054Z,0.00
2022-12-26T00:08:02.323Z,0.00
2022-12-26T00:09:02.278Z,0.00
2022-12-26T00:10:02.699Z,0.00
2022-12-26T00:11:02.248Z,0.00
2022-12-26T00:12:03.520Z,0.00
2022-12-26T00:13:38.570Z,0.00
2022-12-26T00:14:03.406Z,0.00
2022-12-26T00:15:03.057Z,0.00
2022-12-26T00:16:02.946Z,0.00
2022-12-26T00:17:02.443Z,0.00
2022-12-26T00:18:03.045Z,0.00
2022-12-26T00:19:02.610Z,0.00
2022-12-26T00:20:02.493Z,0.00
2022-12-26T00:21:03.052Z,0.00
2022-12-26T00:22:02.620Z,0.00
2022-12-26T00:23:03.143Z,0.00
2022-12-26T00:24:02.859Z,0.00
2022-12-26T00:25:03.153Z,0.00
2022-12-26T00:26:02.690Z,0.00
2022-12-26T00:27:02.294Z,0.00
2022-12-26T00:28:02.209Z,0.00
2022-12-26T00:29:02.804Z,0.00
2022-12-26T00:30:02.801Z,0.00
2022-12-26T00:31:02.445Z,0.00
2022-12-26T00:32:02.760Z,0.00
2022-12-26T00:33:02.348Z,0.00
2022-12-26T00:34:02.439Z,0.00
2022-12-26T00:35:02.212Z,0.00
2022-12-26T00:36:02.764Z,0.00
2022-12-26T00:37:02.433Z,0.00
2022-12-26T00:38:02.310Z,0.00
2022-12-26T00:39:02.843Z,0.00
2022-12-26T00:40:02.690Z,0.00
2022-12-26T00:41:02.304Z,0.00
2022-12-26T00:42:02.820Z,0.00
2022-12-26T00:43:02.751Z,0.00
2022-12-26T00:44:03.433Z,0.00
2022-12-26T00:45:03.179Z,0.00
2022-12-26T00:46:03.116Z,0.00
2022-12-26T00:47:03.085Z,0.00
2022-12-26T00:48:02.868Z,0.00
2022-12-26T00:49:03.356Z,0.00
2022-12-26T00:50:13.677Z,0.00
2022-12-26T00:51:03.186Z,0.00
2022-12-26T00:52:03.506Z,0.00
2022-12-26T00:53:03.219Z,0.00
2022-12-26T00:54:03.127Z,0.00
2022-12-26T00:55:03.336Z,0.00
2022-12-26T00:56:03.164Z,0.00
2022-12-26T00:57:02.809Z,0.00
2022-12-26T00:58:02.713Z,0.00
2022-12-26T00:59:02.624Z,0.00
2022-12-26T01:00:03.167Z,0.00
2022-12-26T01:01:02.785Z,0.00
2022-12-26T01:02:02.536Z,0.00
2022-12-26T01:03:02.338Z,0.00
2022-12-26T01:04:02.225Z,0.00
2022-12-26T01:05:02.683Z,0.00
2022-12-26T01:06:02.284Z,0.00
2022-12-26T01:07:02.803Z,0.00
2022-12-26T01:08:21.849Z,0.00
2022-12-26T01:09:02.716Z,0.00
2022-12-26T01:10:02.795Z,0.00
2022-12-26T01:11:02.701Z,0.00
2022-12-26T01:12:02.385Z,0.00
2022-12-26T01:13:02.591Z,0.00
2022-12-26T01:14:02.487Z,0.00
2022-12-26T01:15:02.072Z,0.00
2022-12-26T01:16:02.696Z,0.00
2022-12-26T01:17:02.686Z,0.00
2022-12-26T01:18:02.342Z,0.00
2022-12-26T01:19:02.420Z,0.00
2022-12-26T01:20:02.297Z,0.00
2022-12-26T01:21:02.274Z,0.00
2022-12-26T01:22:02.762Z,0.00
2022-12-26T01:23:02.706Z,0.00
2022-12-26T01:24:02.603Z,0.00
2022-12-26T01:25:02.494Z,0.00
2022-12-26T01:26:17.604Z,0.00
2022-12-26T01:27:02.662Z,0.00
2022-12-26T01:28:03.236Z,0.00
2022-12-26T01:29:03.109Z,0.00
2022-12-26T01:30:02.909Z,0.00
2022-12-26T01:31:02.813Z,0.00
2022-12-26T01:32:02.438Z,0.00
2022-12-26T01:33:02.096Z,0.00
2022-12-26T01:34:02.463Z,0.00
2022-12-26T01:35:02.383Z,0.00
2022-12-26T01:36:02.174Z,0.00
2022-12-26T01:37:02.565Z,0.00
2022-12-26T01:38:02.367Z,0.00
2022-12-26T01:39:02.883Z,0.00
2022-12-26T01:40:02.791Z,0.00
2022-12-26T01:41:02.645Z,0.00
2022-12-26T01:42:03.118Z,0.00
2022-12-26T01:43:03.188Z,0.00
2022-12-26T01:44:03.010Z,0.00
2022-12-26T01:45:02.900Z,0.00
2022-12-26T01:46:03.516Z,0.00
2022-12-26T01:47:02.917Z,0.00
2022-12-26T01:48:02.603Z,0.00
2022-12-26T01:49:02.787Z,0.00
2022-12-26T01:50:02.988Z,0.00
2022-12-26T01:51:02.738Z,0.00
2022-12-26T01:52:03.299Z,0.00
2022-12-26T01:53:03.159Z,0.00
2022-12-26T01:54:39.812Z,0.00
2022-12-26T01:55:03.220Z,0.00
2022-12-26T01:56:03.142Z,0.00
2022-12-26T01:57:02.748Z,0.00
2022-12-26T01:58:02.450Z,0.00
2022-12-26T01:59:02.276Z,0.00
2022-12-26T02:00:02.856Z,0.00
2022-12-26T02:01:02.605Z,0.00
2022-12-26T02:02:02.422Z,0.00
2022-12-26T02:03:01.890Z,0.00
2022-12-26T02:04:01.767Z,0.00
2022-12-26T02:05:02.317Z,0.00
2022-12-26T02:06:01.822Z,0.00
2022-12-26T02:07:02.368Z,0.00
2022-12-26T02:08:01.992Z,0.00
2022-12-26T02:09:02.254Z,0.00
2022-12-26T02:10:01.902Z,0.00
2022-12-26T02:11:01.831Z,0.00
2022-12-26T02:12:35.986Z,0.00
2022-12-26T02:13:02.229Z,0.00
2022-12-26T02:14:02.130Z,0.00
2022-12-26T02:15:01.864Z,0.00
2022-12-26T02:16:02.161Z,0.00
2022-12-26T02:17:02.401Z,0.00
2022-12-26T02:18:02.273Z,0.00
2022-12-26T02:19:02.795Z,0.00
2022-12-26T02:20:02.419Z,0.00
2022-12-26T02:21:02.257Z,0.00
2022-12-26T02:22:02.355Z,0.00
2022-12-26T02:23:02.816Z,0.00
2022-12-26T02:24:02.699Z,0.00
2022-12-26T02:25:02.494Z,0.00
2022-12-26T02:26:02.633Z,0.00
2022-12-26T02:27:03.087Z,0.00
2022-12-26T02:28:02.908Z,0.00
2022-12-26T02:29:02.823Z,0.00
2022-12-26T02:30:02.682Z,0.00
2022-12-26T02:31:03.234Z,0.00
2022-12-26T02:32:02.297Z,0.00
2022-12-26T02:33:02.242Z,0.00
2022-12-26T02:34:02.697Z,0.00
2022-12-26T02:35:02.556Z,0.00
2022-12-26T02:36:02.336Z,0.00
2022-12-26T02:37:02.962Z,0.00
2022-12-26T02:38:02.612Z,0.00
2022-12-26T02:39:02.563Z,0.00
2022-12-26T02:40:02.455Z,0.00
2022-12-26T02:41:02.520Z,0.00
2022-12-26T02:42:03.083Z,0.00
2022-12-26T02:43:02.685Z,0.00
2022-12-26T02:44:02.523Z,0.00
2022-12-26T02:45:02.897Z,0.00
2022-12-26T02:46:02.569Z,0.00
2022-12-26T02:47:03.303Z,0.00
2022-12-26T02:48:03.227Z,0.00
2022-12-26T02:49:02.927Z,0.00
2022-12-26T02:50:02.790Z,0.00
2022-12-26T02:51:03.293Z,0.00
2022-12-26T02:52:02.188Z,0.00
2022-12-26T02:53:02.101Z,0.00
2022-12-26T02:54:02.019Z,0.00
2022-12-26T02:55:02.224Z,0.00
2022-12-26T02:56:02.352Z,0.00
2022-12-26T02:57:02.208Z,0.00
2022-12-26T02:58:02.608Z,0.00
2022-12-26T02:59:02.796Z,0.00
2022-12-26T03:00:02.580Z,0.00
2022-12-26T03:01:03.020Z,0.00
2022-12-26T03:02:03.399Z,0.00
2022-12-26T03:03:03.260Z,0.00
2022-12-26T03:04:02.908Z,0.00
2022-12-26T03:05:02.747Z,0.00
2022-12-26T03:06:02.893Z,0.00
2022-12-26T03:07:01.849Z,0.00
2022-12-26T03:08:02.490Z,0.00
2022-12-26T03:09:02.059Z,0.00
2022-12-26T03:10:01.874Z,0.00
2022-12-26T03:11:02.349Z,0.00
2022-12-26T03:12:02.211Z,0.00
2022-12-26T03:13:02.624Z,0.00
2022-12-26T03:14:02.454Z,0.00
2022-12-26T03:15:02.203Z,0.00
2022-12-26T03:16:02.699Z,0.00
2022-12-26T03:17:02.459Z,0.00
2022-12-26T03:18:02.941Z,0.00
2022-12-26T03:19:02.513Z,0.00
2022-12-26T03:20:02.535Z,0.00
2022-12-26T03:21:02.406Z,0.00
2022-12-26T03:22:01.943Z,0.00
2022-12-26T03:23:02.385Z,0.00
2022-12-26T03:24:02.015Z,0.00
2022-12-26T03:25:02.558Z,0.00
2022-12-26T03:26:02.121Z,0.00
2022-12-26T03:27:02.602Z,0.00
2022-12-26T03:28:02.608Z,0.00
2022-12-26T03:29:02.981Z,0.00
2022-12-26T03:30:02.671Z,0.00
2022-12-26T03:31:03.175Z,0.00
2022-12-26T03:32:01.918Z,0.00
2022-12-26T03:33:02.013Z,0.00
2022-12-26T03:34:01.779Z,0.00
2022-12-26T03:35:02.312Z,0.00
2022-12-26T03:36:02.214Z,0.00
2022-12-26T03:37:02.242Z,0.00
2022-12-26T03:38:02.171Z,0.00
2022-12-26T03:39:01.987Z,0.00
2022-12-26T03:40:02.024Z,0.00
2022-12-26T03:41:02.413Z,0.00
2022-12-26T03:42:02.312Z,0.00
2022-12-26T03:43:02.208Z,0.00
2022-12-26T03:44:02.446Z,0.00
2022-12-26T03:45:02.708Z,0.00
2022-12-26T03:46:02.326Z,0.00
2022-12-26T03:47:01.915Z,0.00
2022-12-26T03:48:01.883Z,0.00
2022-12-26T03:49:02.350Z,0.00
2022-12-26T03:50:01.925Z,0.00
2022-12-26T03:51:01.988Z,0.00
2022-12-26T03:52:02.621Z,0.00
2022-12-26T03:53:02.744Z,0.00
2022-12-26T03:54:02.591Z,0.00
2022-12-26T03:55:02.813Z,0.00
2022-12-26T03:56:02.707Z,0.00
2022-12-26T03:57:02.059Z,0.00
2022-12-26T03:58:02.577Z,0.00
2022-12-26T03:59:02.475Z,0.00
2022-12-26T04:00:02.393Z,0.00
2022-12-26T04:01:02.325Z,0.00
2022-12-26T04:02:03.081Z,0.00
2022-12-26T04:03:02.700Z,0.00
2022-12-26T04:04:03.354Z,0.00
2022-12-26T04:05:03.157Z,0.00
2022-12-26T04:06:03.180Z,0.00
2022-12-26T04:07:03.454Z,0.00
2022-12-26T04:08:02.899Z,0.00
2022-12-26T04:09:03.346Z,0.00
2022-12-26T04:10:03.132Z,0.00
2022-12-26T04:11:03.037Z,0.00
2022-12-26T04:12:03.080Z,0.00
2022-12-26T04:13:03.095Z,0.00
2022-12-26T04:14:03.422Z,0.00
2022-12-26T04:15:03.229Z,0.00
2022-12-26T04:16:03.409Z,0.00
2022-12-26T04:17:03.346Z,0.00
2022-12-26T04:18:03.329Z,0.00
2022-12-26T04:19:03.522Z,0.00
2022-12-26T04:20:03.391Z,0.00
2022-12-26T04:21:03.213Z,0.00
2022-12-26T04:22:02.798Z,0.00
2022-12-26T04:23:02.924Z,0.00
2022-12-26T04:24:02.850Z,0.00
2022-12-26T04:25:02.561Z,0.00
2022-12-26T04:26:03.079Z,0.00
2022-12-26T04:27:02.969Z,0.00
2022-12-26T04:28:02.807Z,0.00
2022-12-26T04:29:03.230Z,0.00
2022-12-26T04:30:02.814Z,0.00
2022-12-26T04:31:02.725Z,0.00
2022-12-26T04:32:03.423Z,0.00
2022-12-26T04:33:03.659Z,0.00
2022-12-26T04:34:03.227Z,0.00
2022-12-26T04:35:03.194Z,0.00
2022-12-26T04:36:03.134Z,0.00
2022-12-26T04:37:03.000Z,0.00
2022-12-26T04:38:03.007Z,0.00
2022-12-26T04:39:03.077Z,0.00
2022-12-26T04:40:02.634Z,0.00
2022-12-26T04:41:02.512Z,0.00
2022-12-26T04:42:03.022Z,0.00
2022-12-26T04:43:47.162Z,0.00
2022-12-26T04:44:02.769Z,0.00
2022-12-26T04:45:02.668Z,0.00
2022-12-26T04:46:03.294Z,0.00
2022-12-26T04:47:02.361Z,0.00
2022-12-26T04:48:02.858Z,0.00
2022-12-26T04:49:02.900Z,0.00
2022-12-26T04:50:02.582Z,0.00
2022-12-26T04:51:02.447Z,0.00
2022-12-26T04:52:03.011Z,0.00
2022-12-26T04:53:02.631Z,0.00
2022-12-26T04:54:03.141Z,0.00
2022-12-26T04:55:03.027Z,0.00
2022-12-26T04:56:02.816Z,0.00
2022-12-26T04:57:03.132Z,0.00
2022-12-26T04:58:02.896Z,0.00
2022-12-26T04:59:03.383Z,0.00
2022-12-26T05:00:02.931Z,0.00
2022-12-26T05:01:03.116Z,0.00
2022-12-26T05:02:02.828Z,0.00
2022-12-26T05:03:02.489Z,0.00
2022-12-26T05:04:02.509Z,0.00
2022-12-26T05:05:02.869Z,0.00
2022-12-26T05:06:02.453Z,0.00
2022-12-26T05:07:03.064Z,0.00
2022-12-26T05:08:02.990Z,0.00
2022-12-26T05:09:02.835Z,0.00
2022-12-26T05:10:02.661Z,0.00
2022-12-26T05:11:03.136Z,0.00
2022-12-26T05:12:02.527Z,0.00
2022-12-26T05:13:02.405Z,0.00
2022-12-26T05:14:02.222Z,0.00
2022-12-26T05:15:02.030Z,0.00
2022-12-26T05:16:02.559Z,0.00
2022-12-26T05:17:02.871Z,0.00
2022-12-26T05:18:02.781Z,0.00
2022-12-26T05:19:02.578Z,0.00
2022-12-26T05:20:02.537Z,0.00
2022-12-26T05:21:02.952Z,0.00
2022-12-26T05:22:02.238Z,0.00
2022-12-26T05:23:02.236Z,0.00
2022-12-26T05:24:02.068Z,0.00
2022-12-26T05:25:01.950Z,0.00
2022-12-26T05:26:01.824Z,0.00
2022-12-26T05:27:02.485Z,0.00
2022-12-26T05:28:02.120Z,0.00
2022-12-26T05:29:01.917Z,0.00
2022-12-26T05:30:02.555Z,0.00
2022-12-26T05:31:02.259Z,0.00
2022-12-26T05:32:02.904Z,0.00
2022-12-26T05:33:02.529Z,0.00
2022-12-26T05:34:02.427Z,0.00
2022-12-26T05:35:02.922Z,0.00
2022-12-26T05:36:02.594Z,0.00
2022-12-26T05:37:03.132Z,0.00
2022-12-26T05:38:02.756Z,0.00
2022-12-26T05:39:02.598Z,0.00
2022-12-26T05:40:03.194Z,0.00
2022-12-26T05:41:02.782Z,0.00
2022-12-26T05:42:02.948Z,0.00
2022-12-26T05:43:02.977Z,0.00
2022-12-26T05:44:03.096Z,0.00
2022-12-26T05:45:03.027Z,0.00
2022-12-26T05:46:03.045Z,0.00
2022-12-26T05:47:02.512Z,0.00
2022-12-26T05:48:02.162Z,0.00
2022-12-26T05:49:01.991Z,0.00
2022-12-26T05:50:02.329Z,0.00
2022-12-26T05:51:02.345Z,0.00
2022-12-26T05:52:02.997Z,0.00
2022-12-26T05:53:02.540Z,0.00
2022-12-26T05:54:02.623Z,0.00
2022-12-26T05:55:02.447Z,0.00
2022-12-26T05:56:02.901Z,0.00
2022-12-26T05:57:03.120Z,0.00
2022-12-26T05:58:02.693Z,0.00
2022-12-26T05:59:02.787Z,0.00
2022-12-26T06:00:03.156Z,0.00
2022-12-26T06:01:02.603Z,0.00
2022-12-26T06:02:03.938Z,0.00
2022-12-26T06:03:03.779Z,0.00
2022-12-26T06:04:03.795Z,0.00
2022-12-26T06:05:03.452Z,0.00
2022-12-26T06:06:03.181Z,0.00
2022-12-26T06:07:02.843Z,0.00
2022-12-26T06:08:03.485Z,0.00
2022-12-26T06:09:03.114Z,0.00
2022-12-26T06:10:02.920Z,0.00
2022-12-26T06:11:03.045Z,0.00
2022-12-26T06:12:03.550Z,0.00
2022-12-26T06:13:03.016Z,0.00
2022-12-26T06:14:03.522Z,0.00
2022-12-26T06:15:03.050Z,0.00
2022-12-26T06:16:03.144Z,0.00
2022-12-26T06:17:02.985Z,0.00
2022-12-26T06:18:03.237Z,0.00
2022-12-26T06:19:03.019Z,0.00
2022-12-26T06:20:03.439Z,0.00
2022-12-26T06:21:03.570Z,0.00
2022-12-26T06:22:03.637Z,0.00
2022-12-26T06:23:03.268Z,0.00
2022-12-26T06:24:03.412Z,0.00
2022-12-26T06:25:03.203Z,0.00
2022-12-26T06:26:03.707Z,0.00
2022-12-26T06:27:02.659Z,0.00
2022-12-26T06:28:02.821Z,0.00
2022-12-26T06:29:02.559Z,0.00
2022-12-26T06:30:03.183Z,0.00
2022-12-26T06:31:02.897Z,0.00
2022-12-26T06:32:02.761Z,0.00
2022-12-26T06:33:03.312Z,0.00
2022-12-26T06:34:02.909Z,0.00
2022-12-26T06:35:02.652Z,0.00
2022-12-26T06:36:03.050Z,0.00
2022-12-26T06:37:02.991Z,0.00
2022-12-26T06:38:02.899Z,0.00
2022-12-26T06:39:03.198Z,0.00
2022-12-26T06:40:02.931Z,0.00
2022-12-26T06:41:03.457Z,0.00
2022-12-26T06:42:03.065Z,0.00
2022-12-26T06:43:03.447Z,0.00
2022-12-26T06:44:03.301Z,0.00
2022-12-26T06:45:03.053Z,0.00
2022-12-26T06:46:03.403Z,0.00
2022-12-26T06:47:03.360Z,0.00
2022-12-26T06:48:03.598Z,0.00
2022-12-26T06:49:03.307Z,0.00
2022-12-26T06:50:03.274Z,0.00
2022-12-26T06:51:03.889Z,0.00
2022-12-26T06:52:02.601Z,0.00
2022-12-26T06:53:02.995Z,0.00
2022-12-26T06:54:02.827Z,0.00
2022-12-26T06:55:02.691Z,0.00
2022-12-26T06:56:03.138Z,0.00
2022-12-26T06:57:02.897Z,0.00
2022-12-26T06:58:02.747Z,0.00
2022-12-26T06:59:03.226Z,0.00
2022-12-26T07:00:03.010Z,0.00
2022-12-26T07:01:03.167Z,0.00
2022-12-26T07:02:02.864Z,0.00
2022-12-26T07:03:02.534Z,4.00
2022-12-26T07:04:02.361Z,4.00
2022-12-26T07:05:02.208Z,0.00
2022-12-26T07:06:02.781Z,4.00
2022-12-26T07:07:02.348Z,4.00
2022-12-26T07:08:02.170Z,8.00
2022-12-26T07:09:02.739Z,8.00
2022-12-26T07:10:02.650Z,8.00
2022-12-26T07:11:02.455Z,8.00
2022-12-26T07:12:02.660Z,8.00
2022-12-26T07:13:02.579Z,12.00
2022-12-26T07:14:03.117Z,16.00
2022-12-26T07:15:02.684Z,16.00
2022-12-26T07:16:03.201Z,16.00
2022-12-26T07:17:02.832Z,20.00
2022-12-26T07:18:02.672Z,20.00
2022-12-26T07:19:03.441Z,24.00
2022-12-26T07:20:02.997Z,28.00
2022-12-26T07:21:02.828Z,28.00
2022-12-26T07:22:02.442Z,36.00
2022-12-26T07:23:02.386Z,44.00
2022-12-26T07:24:02.320Z,44.00
2022-12-26T07:25:02.563Z,52.00
2022-12-26T07:26:02.518Z,52.00
2022-12-26T07:27:02.113Z,52.00
2022-12-26T07:28:01.986Z,52.00
2022-12-26T07:29:01.866Z,52.00
2022-12-26T07:30:02.498Z,56.00
2022-12-26T07:31:02.352Z,76.00
2022-12-26T07:32:02.354Z,88.00
2022-12-26T07:33:02.261Z,88.00
2022-12-26T07:34:02.518Z,88.00
2022-12-26T07:35:02.247Z,92.00
2022-12-26T07:36:02.163Z,88.00
2022-12-26T07:37:02.797Z,80.00
2022-12-26T07:38:02.650Z,68.00
2022-12-26T07:39:02.533Z,64.00
2022-12-26T07:40:03.001Z,72.00
2022-12-26T07:41:02.870Z,80.00
2022-12-26T07:42:02.819Z,104.00
2022-12-26T07:43:02.745Z,136.00
2022-12-26T07:44:02.656Z,180.00
2022-12-26T07:45:02.587Z,204.00
2022-12-26T07:46:02.634Z,204.00
2022-12-26T07:47:02.445Z,216.00
2022-12-26T07:48:02.053Z,212.00
2022-12-26T07:49:02.636Z,232.00
2022-12-26T07:50:02.550Z,220.00
2022-12-26T07:51:02.547Z,192.00
2022-12-26T07:52:02.532Z,212.00
2022-12-26T07:53:02.311Z,228.00
2022-12-26T07:54:05.629Z,228.00
2022-12-26T07:55:02.813Z,220.00
2022-12-26T07:56:02.180Z,244.00
2022-12-26T07:57:46.092Z,300.00
2022-12-26T07:58:02.724Z,344.00
2022-12-26T07:59:02.880Z,416.00
2022-12-26T08:00:02.800Z,464.00
2022-12-26T08:01:02.664Z,512.00
2022-12-26T08:02:02.519Z,624.00
2022-12-26T08:03:07.355Z,716.00
2022-12-26T08:04:02.494Z,716.00
2022-12-26T08:05:02.448Z,704.00
2022-12-26T08:06:02.404Z,768.00
2022-12-26T08:07:02.102Z,792.00
2022-12-26T08:08:01.845Z,816.00
2022-12-26T08:09:01.665Z,724.00
2022-12-26T08:10:02.188Z,592.00
2022-12-26T08:11:02.145Z,456.00
2022-12-26T08:12:02.675Z,448.00
2022-12-26T08:13:02.641Z,540.00
2022-12-26T08:14:02.569Z,648.00
2022-12-26T08:15:02.552Z,680.00
2022-12-26T08:16:02.514Z,728.00
2022-12-26T08:17:02.225Z,852.00
2022-12-26T08:18:02.157Z,856.00
2022-12-26T08:19:02.144Z,780.00
2022-12-26T08:20:02.062Z,732.00
2022-12-26T08:21:01.815Z,704.00
2022-12-26T08:22:02.452Z,884.00
2022-12-26T08:23:02.467Z,1188.00
2022-12-26T08:24:02.435Z,1196.00
2022-12-26T08:25:02.447Z,1212.00
2022-12-26T08:26:02.451Z,1272.00
2022-12-26T08:27:02.201Z,1020.00
2022-12-26T08:28:01.940Z,908.00
2022-12-26T08:29:01.609Z,980.00
2022-12-26T08:30:02.189Z,792.00
2022-12-26T08:31:02.102Z,716.00
2022-12-26T08:32:02.711Z,1100.00
2022-12-26T08:33:02.495Z,1300.00
2022-12-26T08:34:02.207Z,1572.00
2022-12-26T08:35:02.327Z,1888.00
2022-12-26T08:36:02.427Z,1788.00
2022-12-26T08:37:02.040Z,1740.00
2022-12-26T08:38:02.105Z,1824.00
2022-12-26T08:39:01.911Z,1588.00
2022-12-26T08:40:01.938Z,1524.00
2022-12-26T08:41:01.794Z,1672.00
2022-12-26T08:42:02.265Z,1580.00
2022-12-26T08:43:22.081Z,1572.00
2022-12-26T08:44:26.904Z,1768.00
2022-12-26T08:45:01.705Z,1796.00
2022-12-26T08:46:02.109Z,1864.00
2022-12-26T08:47:01.733Z,1764.00
2022-12-26T08:48:02.204Z,1952.00
2022-12-26T08:49:02.107Z,2160.00
2022-12-26T08:50:02.047Z,2192.00
2022-12-26T08:51:02.168Z,2216.00
2022-12-26T08:52:02.764Z,2428.00
2022-12-26T08:53:02.466Z,2692.00
2022-12-26T08:54:02.396Z,2888.00
2022-12-26T08:55:02.721Z,2992.00
2022-12-26T08:56:02.397Z,2848.00
2022-12-26T08:57:03.067Z,2828.00
2022-12-26T08:58:02.935Z,3012.00
2022-12-26T08:59:03.010Z,3140.00
2022-12-26T09:00:02.760Z,3020.00
2022-12-26T09:01:02.922Z,2644.00
2022-12-26T09:02:02.693Z,2236.00
2022-12-26T09:03:02.603Z,1956.00
2022-12-26T09:04:02.434Z,1884.00
2022-12-26T09:05:02.338Z,1924.00
2022-12-26T09:06:05.832Z,2008.00
2022-12-26T09:07:02.351Z,2032.00
2022-12-26T09:08:02.904Z,2088.00
2022-12-26T09:09:02.708Z,2660.00
2022-12-26T09:10:02.696Z,3164.00
2022-12-26T09:11:02.582Z,3660.00
2022-12-26T09:12:02.353Z,3984.00
2022-12-26T09:13:02.335Z,4044.00
2022-12-26T09:14:02.426Z,3944.00
2022-12-26T09:15:02.607Z,3760.00
2022-12-26T09:16:02.857Z,3644.00
2022-12-26T09:17:01.902Z,3748.00
2022-12-26T09:18:02.103Z,4044.00
2022-12-26T09:19:02.042Z,4476.00
2022-12-26T09:20:01.926Z,4952.00
2022-12-26T09:21:01.789Z,5240.00
2022-12-26T09:22:02.036Z,5488.00
2022-12-26T09:23:02.003Z,5844.00
2022-12-26T09:24:02.582Z,6000.00
2022-12-26T09:25:02.612Z,5824.00
2022-12-26T09:26:02.090Z,5476.00
2022-12-26T09:27:02.203Z,5120.00
2022-12-26T09:28:02.119Z,4452.00
2022-12-26T09:29:02.193Z,3944.00
2022-12-26T09:30:02.253Z,4056.00
2022-12-26T09:31:02.286Z,4500.00
2022-12-26T09:32:01.837Z,4780.00
2022-12-26T09:33:02.363Z,5012.00
2022-12-26T09:34:02.147Z,5060.00
2022-12-26T09:35:02.222Z,4812.00
2022-12-26T09:36:04.679Z,4420.00
2022-12-26T09:37:02.074Z,3920.00
2022-12-26T09:38:02.143Z,4124.00
2022-12-26T09:39:02.493Z,4308.00
2022-12-26T09:40:02.200Z,4224.00
2022-12-26T09:41:02.282Z,3992.00
2022-12-26T09:42:02.641Z,3692.00
2022-12-26T09:43:02.469Z,3568.00
2022-12-26T09:44:02.234Z,3792.00
2022-12-26T09:45:02.170Z,3784.00
2022-12-26T09:46:02.599Z,3736.00
2022-12-26T09:47:02.438Z,3728.00
2022-12-26T09:48:02.773Z,3508.00
2022-12-26T09:49:02.660Z,3516.00
2022-12-26T09:50:02.671Z,3860.00
2022-12-26T09:51:02.602Z,4292.00
2022-12-26T09:52:02.483Z,4592.00
2022-12-26T09:53:02.507Z,4848.00
2022-12-26T09:54:02.414Z,5096.00
2022-12-26T09:55:02.456Z,5344.00
2022-12-26T09:56:02.501Z,5528.00
2022-12-26T09:57:04.020Z,5780.00
2022-12-26T09:58:02.457Z,5892.00
2022-12-26T09:59:02.898Z,5940.00
2022-12-26T10:00:02.408Z,6052.00
2022-12-26T10:01:02.406Z,6096.00
2022-12-26T10:02:03.132Z,6012.00
2022-12-26T10:03:03.108Z,5976.00
2022-12-26T10:04:03.095Z,6112.00
2022-12-26T10:05:03.054Z,6264.00
2022-12-26T10:06:03.398Z,6836.00
2022-12-26T10:07:02.440Z,6284.00
2022-12-26T10:08:02.502Z,6140.00
2022-12-26T10:09:02.398Z,5720.00
2022-12-26T10:10:02.911Z,5632.00
2022-12-26T10:11:02.705Z,5552.00
2022-12-26T10:12:02.578Z,5256.00
2022-12-26T10:13:02.989Z,5240.00
2022-12-26T10:14:02.730Z,5424.00
2022-12-26T10:15:03.062Z,5564.00
2022-12-26T10:16:02.864Z,5660.00
2022-12-26T10:17:03.060Z,5696.00
2022-12-26T10:18:03.434Z,5992.00
2022-12-26T10:19:03.333Z,6452.00
2022-12-26T10:20:03.031Z,6696.00
2022-12-26T10:21:03.426Z,6872.00
2022-12-26T10:22:02.851Z,7164.00
2022-12-26T10:23:02.633Z,7188.00
2022-12-26T10:24:02.664Z,7252.00
2022-12-26T10:25:02.715Z,7308.00
2022-12-26T10:26:03.080Z,7488.00
2022-12-26T10:27:02.811Z,7848.00
2022-12-26T10:28:02.875Z,7176.00
2022-12-26T10:29:02.794Z,6864.00
2022-12-26T10:30:02.742Z,6820.00
2022-12-26T10:31:03.064Z,6592.00
2022-12-26T10:32:03.217Z,6532.00
2022-12-26T10:33:03.230Z,6448.00
2022-12-26T10:34:03.289Z,6460.00
2022-12-26T10:35:03.479Z,6660.00
2022-12-26T10:36:03.278Z,6804.00
2022-12-26T10:37:03.383Z,6948.00
2022-12-26T10:38:03.194Z,7160.00
2022-12-26T10:39:03.195Z,7644.00
2022-12-26T10:40:03.263Z,7188.00
2022-12-26T10:41:03.240Z,7756.00
2022-12-26T10:42:02.485Z,7504.00
2022-12-26T10:43:02.272Z,7488.00
2022-12-26T10:44:02.292Z,8496.00
2022-12-26T10:45:02.249Z,9580.00
2022-12-26T10:46:02.302Z,7608.00
2022-12-26T10:47:03.073Z,8064.00
2022-12-26T10:48:03.049Z,7232.00
2022-12-26T10:49:03.446Z,7040.00
2022-12-26T10:50:03.087Z,7164.00
2022-12-26T10:51:03.062Z,7532.00
2022-12-26T10:52:03.084Z,8184.00
2022-12-26T10:53:03.458Z,7804.00
2022-12-26T10:54:02.823Z,8508.00
2022-12-26T10:55:28.896Z,8000.00
2022-12-26T10:56:03.455Z,8596.00
2022-12-26T10:57:03.136Z,8188.00
2022-12-26T10:58:02.797Z,8660.00
2022-12-26T10:59:03.278Z,7928.00
2022-12-26T11:00:03.340Z,8032.00
2022-12-26T11:01:03.445Z,8004.00
2022-12-26T11:02:06.951Z,8276.00
2022-12-26T11:03:02.704Z,8560.00
2022-12-26T11:04:02.807Z,8220.00
2022-12-26T11:06:10.015Z,7544.00
2022-12-26T11:07:02.517Z,7764.00
2022-12-26T11:08:02.503Z,8972.00
2022-12-26T11:09:02.548Z,9064.00
2022-12-26T11:10:02.548Z,9572.00
2022-12-26T11:11:02.562Z,8552.00
2022-12-26T11:12:02.625Z,10744.00
2022-12-26T11:13:02.683Z,9268.00
2022-12-26T11:14:03.372Z,8296.00
2022-12-26T11:15:02.800Z,7224.00
2022-12-26T11:16:02.842Z,7156.00
2022-12-26T11:17:02.836Z,6992.00
2022-12-26T11:18:02.586Z,6540.00
2022-12-26T11:19:03.145Z,6168.00
2022-12-26T11:20:02.792Z,5784.00
2022-12-26T11:21:05.658Z,5292.00
2022-12-26T11:22:03.312Z,4808.00
2022-12-26T11:23:03.141Z,4188.00
2022-12-26T11:24:02.953Z,3908.00
2022-12-26T11:25:03.588Z,3968.00
2022-12-26T11:26:03.575Z,4936.00
2022-12-26T11:27:04.814Z,6076.00
2022-12-26T11:28:02.718Z,6792.00
2022-12-26T11:29:02.981Z,7104.00
2022-12-26T11:30:02.582Z,7216.00
2022-12-26T11:31:02.862Z,7200.00
2022-12-26T11:32:03.619Z,7188.00
2022-12-26T11:33:08.400Z,7396.00
2022-12-26T11:34:03.517Z,7400.00
2022-12-26T11:35:03.551Z,7904.00
2022-12-26T11:36:03.553Z,7464.00
2022-12-26T11:37:02.425Z,6904.00
2022-12-26T11:38:02.433Z,6848.00
2022-12-26T11:39:02.645Z,6788.00
2022-12-26T11:40:02.614Z,6788.00
2022-12-26T11:41:02.501Z,6820.00
2022-12-26T11:42:02.927Z,6944.00
2022-12-26T11:43:02.932Z,6960.00
2022-12-26T11:44:02.662Z,6980.00
2022-12-26T11:45:02.892Z,6980.00
2022-12-26T11:46:03.088Z,6856.00
2022-12-26T11:47:03.506Z,6564.00
2022-12-26T11:48:03.618Z,6236.00
2022-12-26T11:49:03.303Z,6004.00
2022-12-26T11:50:03.074Z,5840.00
2022-12-26T11:51:03.700Z,5664.00
2022-12-26T11:52:03.213Z,5548.00
2022-12-26T11:53:03.071Z,5504.00
2022-12-26T11:54:02.716Z,5492.00
2022-12-26T11:55:02.773Z,5548.00
2022-12-26T11:56:02.730Z,5564.00
2022-12-26T11:57:02.899Z,5516.00
2022-12-26T11:58:02.583Z,5464.00
2022-12-26T11:59:02.503Z,5440.00
2022-12-26T12:00:02.635Z,5380.00
2022-12-26T12:01:02.592Z,5352.00
2022-12-26T12:02:03.605Z,5332.00
2022-12-26T12:03:03.518Z,5192.00
2022-12-26T12:04:03.473Z,4904.00
2022-12-26T12:05:03.509Z,4476.00
2022-12-26T12:06:03.300Z,4148.00
2022-12-26T12:07:03.033Z,3936.00
2022-12-26T12:08:02.947Z,3548.00
2022-12-26T12:09:06.058Z,3260.00
2022-12-26T12:10:02.833Z,3024.00
2022-12-26T12:11:02.805Z,3004.00
2022-12-26T12:12:03.373Z,3024.00
2022-12-26T12:13:03.093Z,2948.00
2022-12-26T12:14:03.184Z,2940.00
2022-12-26T12:15:03.166Z,2956.00
2022-12-26T12:16:03.271Z,3080.00
2022-12-26T12:17:03.641Z,3172.00
2022-12-26T12:18:03.017Z,3000.00
2022-12-26T12:19:03.216Z,2792.00
2022-12-26T12:20:03.075Z,2740.00
2022-12-26T12:21:03.628Z,2640.00
2022-12-26T12:22:04.077Z,2712.00
2022-12-26T12:23:04.161Z,2944.00
2022-12-26T12:24:03.605Z,3116.00
2022-12-26T12:25:03.407Z,3400.00
2022-12-26T12:26:03.631Z,3560.00
2022-12-26T12:27:05.461Z,3200.00
2022-12-26T12:28:03.415Z,2520.00
2022-12-26T12:29:03.913Z,1948.00
2022-12-26T12:30:03.567Z,1896.00
2022-12-26T12:31:03.459Z,2028.00
2022-12-26T12:32:02.614Z,2084.00
2022-12-26T12:33:02.611Z,2352.00
2022-12-26T12:34:03.143Z,2480.00
2022-12-26T12:35:02.978Z,2560.00
2022-12-26T12:36:02.504Z,2756.00
2022-12-26T12:37:03.055Z,3084.00
2022-12-26T12:38:03.597Z,3584.00
2022-12-26T12:39:03.208Z,3940.00
2022-12-26T12:40:03.075Z,4064.00
2022-12-26T12:41:03.698Z,4016.00
2022-12-26T12:42:03.669Z,3996.00
2022-12-26T12:43:02.743Z,4108.00
2022-12-26T12:44:02.730Z,4516.00
2022-12-26T12:45:02.736Z,5236.00
2022-12-26T12:46:02.783Z,6760.00
2022-12-26T12:47:02.822Z,6924.00
2022-12-26T12:48:03.172Z,6840.00
2022-12-26T12:49:03.393Z,6704.00